createdAt,value
2022-12-31T00:00:02.369Z,11.53
2022-12-31T00:02:29.083Z,11.60
2022-12-31T00:04:55.631Z,11.54
2022-12-31T00:07:22.006Z,11.59
2022-12-31T00:09:48.567Z,11.44
2022-12-31T00:12:14.938Z,11.47
2022-12-31T00:14:41.354Z,11.65
2022-12-31T00:17:07.825Z,11.64
2022-12-31T00:19:34.352Z,11.50
2022-12-31T00:22:00.705Z,11.56
2022-12-31T00:24:30.902Z,11.69
2022-12-31T00:26:57.347Z,11.66
2022-12-31T00:29:23.712Z,11.63
2022-12-31T00:31:50.049Z,11.77
2022-12-31T00:34:16.435Z,11.68
2022-12-31T00:36:43.055Z,11.89
2022-12-31T00:39:10.273Z,11.82
2022-12-31T00:41:36.949Z,11.90
2022-12-31T00:44:03.866Z,11.93
2022-12-31T00:46:31.596Z,11.91
2022-12-31T00:48:58.097Z,12.01
2022-12-31T00:51:27.392Z,12.01
2022-12-31T00:53:55.361Z,12.07
2022-12-31T00:56:22.602Z,12.15
2022-12-31T00:58:49.535Z,12.17
2022-12-31T01:01:21.882Z,11.98
2022-12-31T01:03:49.867Z,12.02
2022-12-31T01:06:17.176Z,12.10
2022-12-31T01:08:43.886Z,12.19
2022-12-31T01:11:24.003Z,12.15
2022-12-31T01:13:56.604Z,12.26
2022-12-31T01:16:25.792Z,12.23
2022-12-31T01:18:52.221Z,12.23
2022-12-31T01:21:19.504Z,12.32
2022-12-31T01:23:45.946Z,12.27
2022-12-31T01:26:14.341Z,12.33
2022-12-31T01:28:40.967Z,12.19
2022-12-31T01:31:09.589Z,12.40
2022-12-31T01:33:36.445Z,12.57
2022-12-31T01:36:11.458Z,12.46
2022-12-31T01:38:38.451Z,12.57
2022-12-31T01:41:05.395Z,12.93
2022-12-31T01:43:51.355Z,12.77
2022-12-31T01:46:43.768Z,12.76
2022-12-31T01:49:11.328Z,12.81
2022-12-31T01:51:38.397Z,12.78
2022-12-31T01:54:07.328Z,12.88
2022-12-31T01:56:34.416Z,12.86
2022-12-31T01:59:01.508Z,12.86
2022-12-31T02:01:29.824Z,13.00
2022-12-31T02:03:57.295Z,13.05
2022-12-31T02:06:35.159Z,13.30
2022-12-31T02:09:01.818Z,13.10
2022-12-31T02:11:31.346Z,13.07
2022-12-31T02:14:02.299Z,13.34
2022-12-31T02:16:37.748Z,13.47
2022-12-31T02:19:19.553Z,13.33
2022-12-31T02:21:55.716Z,13.23
2022-12-31T02:24:48.360Z,13.18
2022-12-31T02:27:39.565Z,13.23
2022-12-31T02:30:11.749Z,13.12
2022-12-31T02:33:03.027Z,13.08
2022-12-31T02:35:34.509Z,13.13
2022-12-31T02:38:05.088Z,13.15
2022-12-31T02:40:34.494Z,13.12
2022-12-31T02:43:00.884Z,13.10
2022-12-31T02:45:31.305Z,13.12
2022-12-31T02:48:12.233Z,13.17
2022-12-31T02:51:12.777Z,13.18
2022-12-31T02:53:48.067Z,13.28
2022-12-31T02:56:31.428Z,13.22
2022-12-31T02:59:19.970Z,13.33
2022-12-31T03:02:09.470Z,13.33
2022-12-31T03:04:36.621Z,13.31
2022-12-31T03:07:13.877Z,13.29
2022-12-31T03:09:40.320Z,13.28
2022-12-31T03:12:27.613Z,13.24
2022-12-31T03:14:54.142Z,13.19
2022-12-31T03:17:20.603Z,13.39
2022-12-31T03:20:05.510Z,13.31
2022-12-31T03:22:34.198Z,13.35
2022-12-31T03:25:26.012Z,13.34
2022-12-31T03:27:52.740Z,13.28
2022-12-31T03:30:20.376Z,13.40
2022-12-31T03:32:47.071Z,13.28
2022-12-31T03:35:15.281Z,13.51
2022-12-31T03:37:42.767Z,13.49
2022-12-31T03:40:11.522Z,13.68
2022-12-31T03:42:38.157Z,13.52
2022-12-31T03:45:05.242Z,13.69
2022-12-31T03:47:31.621Z,13.54
2022-12-31T03:49:57.965Z,13.74
2022-12-31T03:52:24.347Z,13.69
2022-12-31T03:54:50.750Z,13.56
2022-12-31T03:57:17.251Z,13.50
2022-12-31T03:59:43.679Z,13.61
2022-12-31T04:02:10.445Z,13.62
2022-12-31T04:04:36.915Z,13.50
2022-12-31T04:07:03.329Z,13.67
2022-12-31T04:09:29.693Z,13.70
2022-12-31T04:11:56.016Z,13.58
2022-12-31T04:14:22.386Z,13.64
2022-12-31T04:16:48.826Z,13.63
2022-12-31T04:19:15.212Z,13.64
2022-12-31T04:21:41.617Z,13.71
2022-12-31T04:24:08.031Z,13.52
2022-12-31T04:26:35.036Z,13.63
2022-12-31T04:29:01.521Z,13.62
2022-12-31T04:31:28.120Z,13.58
2022-12-31T04:33:54.569Z,13.71
2022-12-31T04:36:20.995Z,13.67
2022-12-31T04:38:47.456Z,13.40
2022-12-31T04:41:20.829Z,13.52
2022-12-31T04:43:52.202Z,13.58
2022-12-31T04:46:21.335Z,13.61
2022-12-31T04:48:47.860Z,13.58
2022-12-31T04:51:14.680Z,13.59
2022-12-31T04:53:41.311Z,13.62
2022-12-31T04:56:07.949Z,13.74
2022-12-31T04:58:34.668Z,13.67
2022-12-31T05:01:01.240Z,13.63
2022-12-31T05:03:27.893Z,13.65
2022-12-31T05:05:54.882Z,13.58
2022-12-31T05:08:21.256Z,13.72
2022-12-31T05:10:48.982Z,13.69
2022-12-31T05:13:15.721Z,13.74
2022-12-31T05:15:42.497Z,13.75
2022-12-31T05:18:09.238Z,13.76
2022-12-31T05:20:35.572Z,13.76
2022-12-31T05:23:01.971Z,13.78
2022-12-31T05:25:28.410Z,13.75
2022-12-31T05:27:54.805Z,13.81
2022-12-31T05:30:21.513Z,13.77
2022-12-31T05:32:47.919Z,13.84
2022-12-31T05:35:14.558Z,13.80
2022-12-31T05:37:40.966Z,13.94
2022-12-31T05:40:07.800Z,13.85
2022-12-31T05:42:34.543Z,13.84
2022-12-31T05:45:00.911Z,13.78
2022-12-31T05:47:27.460Z,13.75
2022-12-31T05:49:53.799Z,13.77
2022-12-31T05:52:20.763Z,13.71
2022-12-31T05:54:47.157Z,13.86
2022-12-31T05:57:13.609Z,13.87
2022-12-31T05:59:39.964Z,13.77
2022-12-31T06:02:06.356Z,13.77
2022-12-31T06:04:32.826Z,13.70
2022-12-31T06:06:59.356Z,13.73
2022-12-31T06:09:25.827Z,13.72
2022-12-31T06:11:52.247Z,13.84
2022-12-31T06:14:18.694Z,13.84
2022-12-31T06:16:45.088Z,13.77
2022-12-31T06:19:11.425Z,13.95
2022-12-31T06:21:37.779Z,13.97
2022-12-31T06:24:04.508Z,13.98
2022-12-31T06:26:30.840Z,13.98
2022-12-31T06:28:57.185Z,14.07
2022-12-31T06:31:23.688Z,14.06
2022-12-31T06:33:50.092Z,14.11
2022-12-31T06:36:16.489Z,14.12
2022-12-31T06:38:43.729Z,14.27
2022-12-31T06:41:12.441Z,14.33
2022-12-31T06:43:40.083Z,14.23
2022-12-31T06:46:08.046Z,14.23
2022-12-31T06:48:34.811Z,14.13
2022-12-31T06:51:15.041Z,14.09
2022-12-31T06:53:43.688Z,14.18
2022-12-31T06:56:34.075Z,14.27
2022-12-31T06:59:01.282Z,14.18
2022-12-31T07:01:38.973Z,14.17
2022-12-31T07:04:26.212Z,14.17
2022-12-31T07:07:06.753Z,14.11
2022-12-31T07:09:52.927Z,14.14
2022-12-31T07:12:42.558Z,14.26
2022-12-31T07:15:33.793Z,14.10
2022-12-31T07:18:37.211Z,14.13
2022-12-31T07:21:03.742Z,14.16
2022-12-31T07:23:30.326Z,14.23
2022-12-31T07:26:24.257Z,14.08
2022-12-31T07:29:11.493Z,14.30
2022-12-31T07:32:18.515Z,14.17
2022-12-31T07:35:12.115Z,14.17
2022-12-31T07:37:59.896Z,14.15
2022-12-31T07:40:34.572Z,14.08
2022-12-31T07:43:22.217Z,14.14
2022-12-31T07:46:13.229Z,14.18
2022-12-31T07:48:39.842Z,14.20
2022-12-31T07:51:06.691Z,14.30
2022-12-31T07:53:33.279Z,14.33
2022-12-31T07:56:00.829Z,14.35
2022-12-31T07:58:48.312Z,14.44
2022-12-31T08:01:17.048Z,14.39
2022-12-31T08:04:10.052Z,14.32
2022-12-31T08:06:56.879Z,14.37
2022-12-31T08:09:31.196Z,14.32
2022-12-31T08:11:59.505Z,14.35
2022-12-31T08:14:26.793Z,14.26
2022-12-31T08:16:53.978Z,14.32
2022-12-31T08:19:27.608Z,14.26
2022-12-31T08:22:40.514Z,14.35
2022-12-31T08:25:33.027Z,14.28
2022-12-31T08:28:14.685Z,14.28
2022-12-31T08:31:10.939Z,14.26
2022-12-31T08:33:49.053Z,14.28
2022-12-31T08:36:36.212Z,14.14
2022-12-31T08:39:25.397Z,14.14
2022-12-31T08:41:54.663Z,14.04
2022-12-31T08:44:44.752Z,13.98
2022-12-31T08:47:26.351Z,13.98
2022-12-31T08:49:52.901Z,13.87
2022-12-31T08:52:23.782Z,13.99
2022-12-31T08:54:50.432Z,14.05
2022-12-31T08:57:26.243Z,14.00
2022-12-31T08:59:57.880Z,14.02
2022-12-31T09:02:48.279Z,14.10
2022-12-31T09:05:31.161Z,14.05
2022-12-31T09:08:14.693Z,14.00
2022-12-31T09:10:51.587Z,14.09
2022-12-31T09:13:27.994Z,14.07
2022-12-31T09:16:24.901Z,14.06
2022-12-31T09:18:51.318Z,14.10
2022-12-31T09:21:17.857Z,14.08
2022-12-31T09:23:44.426Z,14.08
2022-12-31T09:26:35.819Z,14.14
2022-12-31T09:29:15.803Z,14.20
2022-12-31T09:31:51.539Z,14.18
2022-12-31T09:34:27.183Z,14.18
2022-12-31T09:37:07.101Z,14.23
2022-12-31T09:39:44.997Z,14.22
2022-12-31T09:42:48.264Z,14.26
2022-12-31T09:45:34.005Z,14.23
2022-12-31T09:48:00.268Z,14.30
2022-12-31T09:50:49.352Z,14.35
2022-12-31T09:53:30.919Z,14.35
2022-12-31T09:56:17.647Z,14.42
2022-12-31T09:59:06.899Z,14.49
2022-12-31T10:01:55.666Z,14.52
2022-12-31T10:04:43.246Z,14.57
2022-12-31T10:07:25.001Z,14.64
2022-12-31T10:09:54.560Z,14.64
2022-12-31T10:12:34.780Z,14.72
2022-12-31T10:15:10.170Z,14.73
2022-12-31T10:17:49.408Z,14.76
2022-12-31T10:20:32.440Z,14.80
2022-12-31T10:23:24.501Z,14.84
2022-12-31T10:26:02.850Z,14.78
2022-12-31T10:28:54.804Z,14.77
2022-12-31T10:31:37.584Z,14.84
2022-12-31T10:34:34.854Z,14.79
2022-12-31T10:37:10.972Z,14.88
2022-12-31T10:39:59.661Z,15.00
2022-12-31T10:42:50.484Z,15.13
2022-12-31T10:45:39.018Z,15.11
2022-12-31T10:48:17.339Z,15.12
2022-12-31T10:51:18.938Z,15.15
2022-12-31T10:54:05.718Z,15.21
2022-12-31T10:56:58.569Z,15.15
2022-12-31T11:00:10.166Z,15.18
2022-12-31T11:03:05.761Z,15.28
2022-12-31T11:06:00.117Z,15.28
2022-12-31T11:08:41.826Z,15.34
2022-12-31T11:11:26.471Z,15.31
2022-12-31T11:14:14.533Z,15.25
2022-12-31T11:17:05.639Z,15.20
2022-12-31T11:19:40.961Z,15.17
2022-12-31T11:22:29.061Z,15.18
2022-12-31T11:25:22.538Z,15.30
2022-12-31T11:28:22.096Z,15.29
2022-12-31T11:31:20.091Z,15.31
2022-12-31T11:34:13.837Z,15.44
2022-12-31T11:36:52.955Z,15.48
2022-12-31T11:39:42.586Z,15.53
2022-12-31T11:42:21.002Z,15.51
2022-12-31T11:45:04.697Z,15.57
2022-12-31T11:48:04.250Z,15.56
2022-12-31T11:50:38.510Z,15.51
2022-12-31T11:53:23.884Z,15.52
2022-12-31T11:56:00.464Z,15.59
2022-12-31T11:58:28.915Z,15.63
2022-12-31T12:01:11.356Z,15.75
2022-12-31T12:03:42.527Z,15.83
2022-12-31T12:06:14.201Z,15.83
2022-12-31T12:08:41.222Z,15.85
2022-12-31T12:11:18.703Z,16.03
2022-12-31T12:13:45.108Z,15.99
2022-12-31T12:16:11.628Z,16.08
2022-12-31T12:18:45.290Z,16.06
2022-12-31T12:21:12.565Z,16.07
2022-12-31T12:23:39.502Z,15.98
2022-12-31T12:26:06.916Z,16.08
2022-12-31T12:28:44.477Z,16.05
2022-12-31T12:31:20.672Z,15.91
2022-12-31T12:33:47.918Z,15.98
2022-12-31T12:36:15.823Z,15.92
2022-12-31T12:38:43.129Z,15.94
2022-12-31T12:41:25.324Z,16.05
2022-12-31T12:44:06.068Z,15.98
2022-12-31T12:46:48.308Z,15.94
2022-12-31T12:49:37.095Z,15.94
2022-12-31T12:52:37.891Z,15.94
2022-12-31T12:55:57.901Z,16.00
2022-12-31T12:58:36.108Z,15.97
2022-12-31T13:01:12.432Z,16.00
2022-12-31T13:04:23.437Z,15.96
2022-12-31T13:06:58.192Z,15.90
2022-12-31T13:09:51.413Z,15.83
2022-12-31T13:12:23.663Z,15.84
2022-12-31T13:15:03.868Z,15.82
2022-12-31T13:17:32.858Z,15.84
2022-12-31T13:20:06.149Z,15.98
2022-12-31T13:22:37.749Z,15.79
2022-12-31T13:25:21.913Z,15.85
2022-12-31T13:27:50.665Z,15.87
2022-12-31T13:30:23.308Z,15.89
2022-12-31T13:32:57.602Z,15.77
2022-12-31T13:35:34.419Z,15.87
2022-12-31T13:38:09.841Z,15.87
2022-12-31T13:41:00.376Z,15.85
2022-12-31T13:43:43.393Z,15.91
2022-12-31T13:46:26.445Z,15.89
2022-12-31T13:48:56.481Z,15.78
2022-12-31T13:51:34.854Z,15.77
2022-12-31T13:54:13.712Z,15.70
2022-12-31T13:56:40.881Z,15.67
2022-12-31T13:59:15.496Z,15.66
2022-12-31T14:02:00.677Z,15.63
2022-12-31T14:04:50.478Z,15.51
2022-12-31T14:07:20.628Z,15.44
2022-12-31T14:09:47.127Z,15.51
2022-12-31T14:12:17.853Z,15.44
2022-12-31T14:15:01.703Z,15.38
2022-12-31T14:17:54.284Z,15.36
2022-12-31T14:20:42.639Z,15.33
2022-12-31T14:23:23.907Z,15.37
2022-12-31T14:26:01.389Z,15.34
2022-12-31T14:28:32.331Z,15.22
2022-12-31T14:31:13.755Z,15.13
2022-12-31T14:34:07.735Z,15.18
2022-12-31T14:36:50.096Z,15.12
2022-12-31T14:39:29.438Z,15.04
2022-12-31T14:42:15.976Z,15.16
2022-12-31T14:44:45.725Z,15.11
2022-12-31T14:47:27.172Z,15.06
2022-12-31T14:50:06.039Z,15.05
2022-12-31T14:52:35.118Z,15.02
2022-12-31T14:55:07.854Z,15.13
2022-12-31T14:58:09.640Z,15.14
2022-12-31T15:00:34.279Z,15.18
2022-12-31T15:03:23.488Z,15.13
2022-12-31T15:06:19.365Z,15.08
2022-12-31T15:09:07.491Z,15.11
2022-12-31T15:11:45.981Z,15.10
2022-12-31T15:14:24.790Z,15.01
2022-12-31T15:17:09.091Z,14.95
2022-12-31T15:19:56.830Z,14.88
2022-12-31T15:22:35.437Z,14.83
2022-12-31T15:25:01.946Z,14.83
2022-12-31T15:27:30.477Z,14.79
2022-12-31T15:29:56.962Z,14.90
2022-12-31T15:32:31.844Z,14.80
2022-12-31T15:35:29.508Z,15.02
2022-12-31T15:38:04.036Z,14.92
2022-12-31T15:40:30.705Z,14.96
2022-12-31T15:43:04.333Z,14.91
2022-12-31T15:45:37.603Z,14.85
2022-12-31T15:48:26.031Z,14.80
2022-12-31T15:50:55.537Z,14.67
2022-12-31T15:53:29.609Z,14.67
2022-12-31T15:55:58.199Z,14.54
2022-12-31T15:58:26.895Z,14.46
2022-12-31T16:01:02.825Z,14.39
2022-12-31T16:03:30.853Z,14.30
2022-12-31T16:06:02.494Z,14.15
2022-12-31T16:08:31.495Z,14.14
2022-12-31T16:10:58.423Z,14.12
2022-12-31T16:13:26.320Z,14.10
2022-12-31T16:16:00.283Z,14.01
2022-12-31T16:18:36.732Z,14.03
2022-12-31T16:21:03.158Z,13.85
2022-12-31T16:23:29.602Z,13.80
2022-12-31T16:25:59.875Z,13.74
2022-12-31T16:28:30.446Z,13.82
2022-12-31T16:31:03.383Z,13.71
2022-12-31T16:33:30.479Z,13.67
2022-12-31T16:35:58.619Z,13.69
2022-12-31T16:38:33.131Z,13.72
2022-12-31T16:41:02.183Z,13.72
2022-12-31T16:43:39.720Z,13.63
2022-12-31T16:46:16.871Z,13.62
2022-12-31T16:48:48.728Z,13.53
2022-12-31T16:51:23.585Z,13.52
2022-12-31T16:53:50.308Z,13.45
2022-12-31T16:56:25.032Z,13.47
2022-12-31T16:58:59.052Z,13.41
2022-12-31T17:01:25.635Z,13.35
2022-12-31T17:03:55.666Z,13.44
2022-12-31T17:06:22.364Z,13.38
2022-12-31T17:09:00.786Z,13.58
2022-12-31T17:11:33.661Z,13.46
2022-12-31T17:14:13.687Z,13.46
2022-12-31T17:16:57.746Z,13.46
2022-12-31T17:19:36.940Z,13.54
2022-12-31T17:22:05.247Z,13.47
2022-12-31T17:24:31.600Z,13.55
2022-12-31T17:27:04.219Z,13.47
2022-12-31T17:29:30.687Z,13.51
2022-12-31T17:31:59.455Z,13.56
2022-12-31T17:34:47.408Z,13.51
2022-12-31T17:38:07.267Z,13.41
2022-12-31T17:40:51.574Z,13.36
2022-12-31T17:44:10.314Z,13.45
2022-12-31T17:47:20.945Z,13.38
2022-12-31T17:53:56.316Z,13.53
2022-12-31T18:00:22.964Z,13.42
2022-12-31T18:03:21.759Z,13.49
2022-12-31T18:05:53.217Z,13.50
2022-12-31T18:09:04.551Z,13.63
2022-12-31T18:11:32.346Z,13.56
2022-12-31T18:17:59.450Z,13.57
2022-12-31T18:20:26.373Z,13.68
2022-12-31T18:22:55.893Z,13.87
2022-12-31T18:25:30.388Z,13.92
2022-12-31T18:28:08.790Z,13.83
2022-12-31T18:30:35.293Z,13.91
2022-12-31T18:33:09.454Z,13.98
2022-12-31T18:38:57.895Z,14.08
2022-12-31T18:41:36.464Z,14.13
2022-12-31T18:44:14.772Z,13.99
2022-12-31T18:46:41.354Z,14.05
2022-12-31T18:49:16.357Z,14.15
2022-12-31T18:51:42.786Z,13.95
2022-12-31T18:54:10.619Z,13.97
2022-12-31T18:56:47.187Z,13.84
2022-12-31T18:59:18.125Z,13.72
2022-12-31T19:01:51.992Z,13.65
2022-12-31T19:04:27.020Z,13.64
2022-12-31T19:06:54.767Z,13.72
2022-12-31T19:12:14.004Z,13.51
2022-12-31T19:14:43.576Z,13.64
2022-12-31T19:19:35.251Z,13.45
2022-12-31T19:22:02.543Z,13.42
2022-12-31T19:24:29.045Z,13.34
2022-12-31T19:26:55.460Z,13.23
2022-12-31T19:29:26.752Z,13.01
2022-12-31T19:31:53.491Z,13.06
2022-12-31T19:34:19.918Z,13.15
2022-12-31T19:36:46.313Z,13.04
2022-12-31T19:39:17.202Z,13.14
2022-12-31T19:41:44.361Z,13.11
2022-12-31T19:44:16.126Z,13.01
2022-12-31T19:46:42.603Z,13.07
2022-12-31T19:49:13.203Z,13.07
2022-12-31T19:51:39.822Z,13.04
2022-12-31T19:54:06.982Z,13.01
2022-12-31T19:56:33.548Z,12.93
2022-12-31T19:59:05.496Z,12.90
2022-12-31T20:01:32.005Z,12.77
2022-12-31T20:03:58.519Z,12.78
2022-12-31T20:06:24.952Z,12.69
2022-12-31T20:08:51.300Z,12.65
2022-12-31T20:11:20.416Z,12.75
2022-12-31T20:13:48.205Z,12.61
2022-12-31T20:16:17.092Z,12.71
2022-12-31T20:18:44.746Z,12.63
2022-12-31T20:21:12.344Z,12.73
2022-12-31T20:23:38.798Z,12.91
2022-12-31T20:26:05.346Z,12.97
2022-12-31T20:28:31.718Z,13.11
2022-12-31T20:30:58.109Z,12.99
2022-12-31T20:33:24.484Z,13.15
2022-12-31T20:35:51.137Z,13.20
2022-12-31T20:38:17.525Z,13.29
2022-12-31T20:40:46.861Z,13.11
2022-12-31T20:43:13.911Z,13.10
2022-12-31T20:45:41.411Z,13.11
2022-12-31T20:48:07.960Z,13.04
2022-12-31T20:50:34.428Z,12.78
2022-12-31T20:53:00.888Z,12.85
2022-12-31T20:55:27.430Z,12.72
2022-12-31T20:57:53.872Z,12.79
2022-12-31T21:00:20.216Z,12.88
2022-12-31T21:02:53.160Z,12.94
2022-12-31T21:05:24.324Z,12.91
2022-12-31T21:07:50.898Z,12.87
2022-12-31T21:10:17.387Z,12.77
2022-12-31T21:12:43.804Z,12.65
2022-12-31T21:15:13.196Z,12.59
2022-12-31T21:17:39.796Z,12.68
2022-12-31T21:20:06.888Z,12.63
2022-12-31T21:22:33.795Z,12.74
2022-12-31T21:25:06.622Z,12.75
2022-12-31T21:27:33.244Z,12.92
2022-12-31T21:30:18.184Z,13.06
2022-12-31T21:32:45.633Z,12.95
2022-12-31T21:35:41.594Z,12.99
2022-12-31T21:38:02.142Z,12.99
2022-12-31T21:40:29.257Z,13.00
2022-12-31T21:42:55.776Z,13.10
2022-12-31T21:45:22.183Z,13.12
2022-12-31T21:48:07.231Z,13.10
2022-12-31T21:50:34.120Z,13.18
2022-12-31T21:53:00.531Z,13.03
2022-12-31T21:55:45.528Z,12.99
2022-12-31T21:58:28.316Z,12.93
2022-12-31T22:01:17.356Z,12.83
2022-12-31T22:03:44.492Z,12.74
2022-12-31T22:06:14.017Z,12.79
2022-12-31T22:08:41.804Z,12.68
2022-12-31T22:11:09.309Z,12.67
2022-12-31T22:13:36.079Z,12.70
2022-12-31T22:16:05.667Z,12.45
2022-12-31T22:18:35.591Z,12.43
2022-12-31T22:21:19.412Z,12.24
2022-12-31T22:23:54.480Z,12.34
2022-12-31T22:26:23.400Z,12.26
2022-12-31T22:28:50.697Z,12.24
2022-12-31T22:31:19.512Z,12.14
2022-12-31T22:33:46.128Z,12.07
2022-12-31T22:36:15.614Z,12.13
2022-12-31T22:38:42.547Z,12.13
2022-12-31T22:41:19.624Z,12.14
2022-12-31T22:43:48.585Z,12.01
2022-12-31T22:46:16.403Z,12.07
2022-12-31T22:48:43.198Z,11.96
2022-12-31T22:51:13.832Z,11.97
2022-12-31T22:53:41.224Z,11.94
2022-12-31T22:56:08.405Z,11.85
2022-12-31T22:58:34.841Z,11.82
2022-12-31T23:01:04.922Z,11.74
2022-12-31T23:03:31.581Z,11.74
2022-12-31T23:05:58.022Z,11.72
2022-12-31T23:08:24.531Z,11.64
2022-12-31T23:11:05.185Z,11.61
2022-12-31T23:13:56.359Z,11.58
2022-12-31T23:16:42.684Z,11.49
2022-12-31T23:19:27.980Z,11.65
2022-12-31T23:22:13.195Z,11.52
2022-12-31T23:24:39.733Z,11.60
2022-12-31T23:27:06.446Z,11.58
2022-12-31T23:29:32.949Z,11.57
2022-12-31T23:31:59.386Z,11.57
2022-12-31T23:34:25.796Z,11.55
2022-12-31T23:36:52.332Z,11.57
2022-12-31T23:39:18.697Z,11.41
2022-12-31T23:41:45.081Z,11.46
2022-12-31T23:44:14.258Z,11.55
2022-12-31T23:46:41.091Z,11.48
2022-12-31T23:49:07.642Z,11.52
2022-12-31T23:51:35.944Z,11.50
2022-12-31T23:54:05.809Z,11.45
2022-12-31T23:56:32.188Z,11.42
2022-12-31T23:58:59.767Z,11.36
